createdAt,value
2022-09-07T00:02:35.342Z,7.7
2022-09-07T00:05:35.335Z,8
2022-09-07T00:08:35.365Z,8.2
2022-09-07T00:11:35.352Z,8.3
2022-09-07T00:14:35.363Z,8.2
2022-09-07T00:17:35.371Z,8.1
2022-09-07T00:20:35.375Z,8.6
2022-09-07T00:23:35.401Z,8.7
2022-09-07T00:26:35.400Z,9.1
2022-09-07T00:29:35.411Z,9
2022-09-07T00:32:35.427Z,9.6
2022-09-07T00:35:35.429Z,9.4
2022-09-07T00:38:35.456Z,9
2022-09-07T00:41:35.454Z,9.4
2022-09-07T00:44:35.462Z,8.9
2022-09-07T00:47:35.474Z,9.1
2022-09-07T00:50:35.480Z,9.2
2022-09-07T00:53:35.507Z,9.1
2022-09-07T00:56:35.504Z,8.7
2022-09-07T00:59:35.506Z,9.3
2022-09-07T01:02:35.640Z,8.8
2022-09-07T01:05:35.533Z,9
2022-09-07T01:08:37.715Z,8.9
2022-09-07T01:11:35.545Z,9.1
2022-09-07T01:14:35.561Z,9.4
2022-09-07T01:17:35.567Z,9.2
2022-09-07T01:20:35.577Z,9.5
2022-09-07T01:23:35.586Z,9.5
2022-09-07T01:26:35.594Z,9.2
2022-09-07T01:29:35.607Z,8.8
2022-09-07T01:32:35.613Z,9.5
2022-09-07T01:35:35.621Z,9.4
2022-09-07T01:38:35.630Z,9.2
2022-09-07T01:41:35.653Z,9.8
2022-09-07T01:44:35.655Z,9.3
2022-09-07T01:47:35.662Z,9.6
2022-09-07T01:50:35.673Z,9.6
2022-09-07T01:53:35.683Z,9.2
2022-09-07T01:56:35.700Z,9.2
2022-09-07T01:59:35.704Z,9.4
2022-09-07T02:02:35.741Z,9.4
2022-09-07T02:05:35.719Z,9.1
2022-09-07T02:08:35.733Z,9.9
2022-09-07T02:11:35.746Z,9.5
2022-09-07T02:14:35.752Z,10
2022-09-07T02:17:35.776Z,9.4
2022-09-07T02:20:35.779Z,9.7
2022-09-07T02:23:35.787Z,9.7
2022-09-07T02:26:35.790Z,9.8
2022-09-07T02:29:35.798Z,9.5
2022-09-07T02:32:35.813Z,9.9
2022-09-07T02:35:35.813Z,9.7
2022-09-07T02:38:35.822Z,9.4
2022-09-07T02:41:35.831Z,9.5
2022-09-07T02:44:35.833Z,9.4
2022-09-07T02:47:35.844Z,9.7
2022-09-07T02:50:35.853Z,9.3
2022-09-07T02:53:35.854Z,9.3
2022-09-07T02:56:35.865Z,9.4
2022-09-07T02:59:35.871Z,9.6
2022-09-07T03:02:35.936Z,9.3
2022-09-07T03:05:35.885Z,9.2
2022-09-07T03:08:35.891Z,9.6
2022-09-07T03:11:35.901Z,9.4
2022-09-07T03:14:35.912Z,9.6
2022-09-07T03:17:35.913Z,9.3
2022-09-07T03:20:35.923Z,9.2
2022-09-07T03:23:35.933Z,9.3
2022-09-07T03:26:35.942Z,8.9
2022-09-07T03:29:39.158Z,8.8
2022-09-07T03:32:35.955Z,9
2022-09-07T03:35:35.965Z,9.3
2022-09-07T03:38:35.968Z,8.9
2022-09-07T03:41:35.973Z,9
2022-09-07T03:44:35.982Z,8.7
2022-09-07T03:47:35.984Z,8.9
2022-09-07T03:50:35.991Z,8.9
2022-09-07T03:53:35.998Z,9.1
2022-09-07T03:56:36.009Z,8.7
2022-09-07T03:59:36.012Z,8.8
2022-09-07T04:02:36.066Z,8.8
2022-09-07T04:05:36.029Z,8.9
2022-09-07T04:08:36.033Z,8.2
2022-09-07T04:11:36.041Z,8.6
2022-09-07T04:14:36.058Z,8.7
2022-09-07T04:17:36.063Z,8.8
2022-09-07T04:20:36.068Z,9.2
2022-09-07T04:23:36.078Z,8.6
2022-09-07T04:26:36.091Z,8.6
2022-09-07T04:29:36.097Z,9
2022-09-07T04:32:36.108Z,8.9
2022-09-07T04:35:36.120Z,8.6
2022-09-07T04:38:36.123Z,9
2022-09-07T04:41:36.121Z,8.9
2022-09-07T04:44:36.140Z,9
2022-09-07T04:47:36.142Z,8.7
2022-09-07T04:50:36.180Z,8.8
2022-09-07T04:53:36.162Z,8.9
2022-09-07T04:56:36.173Z,9.2
2022-09-07T04:59:36.177Z,9.7
2022-09-07T05:02:36.252Z,10.6
2022-09-07T05:05:36.202Z,11
2022-09-07T05:08:36.199Z,10.6
2022-09-07T05:11:36.205Z,11.5
2022-09-07T05:14:36.210Z,11.8
2022-09-07T05:17:36.227Z,11.8
2022-09-07T05:20:36.238Z,11.9
2022-09-07T05:23:36.237Z,12
2022-09-07T05:26:36.263Z,11.9
2022-09-07T05:32:36.254Z,11.5
2022-09-07T05:35:36.272Z,12
2022-09-07T05:38:36.280Z,11.9
2022-09-07T05:41:36.278Z,12
2022-09-07T05:44:43.567Z,12.7
2022-09-07T05:47:36.302Z,12.9
2022-09-07T05:50:36.312Z,13.2
2022-09-07T05:53:36.312Z,13.4
2022-09-07T05:56:36.463Z,12.8
2022-09-07T05:59:36.322Z,13.6
2022-09-07T06:02:39.567Z,13.5
2022-09-07T06:05:36.354Z,12.8
2022-09-07T06:08:36.354Z,12.3
2022-09-07T06:11:36.356Z,12.4
2022-09-07T06:14:36.359Z,12.3
2022-09-07T06:17:36.372Z,11.7
2022-09-07T06:20:36.386Z,11.6
2022-09-07T06:23:36.386Z,11.1
2022-09-07T06:26:36.389Z,11.1
2022-09-07T06:29:36.397Z,11
2022-09-07T06:32:43.842Z,10.8
2022-09-07T06:35:36.424Z,10.8
2022-09-07T06:38:36.420Z,10.4
2022-09-07T06:44:36.434Z,9.9
2022-09-07T06:47:36.442Z,10
2022-09-07T06:50:36.463Z,9.9
2022-09-07T06:53:36.880Z,9.6
2022-09-07T06:56:36.465Z,10.2
2022-09-07T06:59:36.474Z,10.1
2022-09-07T07:02:36.481Z,9.7
2022-09-07T07:05:36.497Z,9.7
2022-09-07T07:08:36.491Z,9.5
2022-09-07T07:11:36.502Z,9.5
2022-09-07T07:14:38.649Z,9.1
2022-09-07T07:17:36.505Z,9.3
2022-09-07T07:20:36.528Z,9.3
2022-09-07T07:23:36.517Z,9.1
2022-09-07T07:26:36.531Z,9.3
2022-09-07T07:29:36.531Z,9.1
2022-09-07T07:32:36.542Z,9.2
2022-09-07T07:35:36.578Z,9.3
2022-09-07T07:44:36.565Z,8.7
2022-09-07T07:47:36.569Z,8.8
2022-09-07T07:50:36.584Z,9
2022-09-07T07:53:41.524Z,8.5
2022-09-07T07:56:36.593Z,8.2
2022-09-07T07:59:36.593Z,8.3
2022-09-07T08:02:36.677Z,7.9
2022-09-07T08:05:36.641Z,8.2
2022-09-07T08:08:36.625Z,8.3
2022-09-07T08:11:36.727Z,8.9
2022-09-07T08:14:36.632Z,10.1
2022-09-07T08:17:36.633Z,10.6
2022-09-07T08:20:36.664Z,10.8
2022-09-07T08:23:36.641Z,14.6
2022-09-07T08:26:36.641Z,16.3
2022-09-07T08:29:36.675Z,18.3
2022-09-07T08:32:36.658Z,18.2
2022-09-07T08:35:36.681Z,17.7
2022-09-07T08:38:36.672Z,18.5
2022-09-07T08:41:36.698Z,19.1
2022-09-07T08:44:36.683Z,19.4
2022-09-07T08:47:36.717Z,18.8
2022-09-07T08:50:36.717Z,18.7
2022-09-07T08:53:36.701Z,16.8
2022-09-07T08:56:36.954Z,16.3
2022-09-07T08:59:36.708Z,16.1
2022-09-07T09:02:43.341Z,15.7
2022-09-07T09:05:36.874Z,14.6
2022-09-07T09:08:36.712Z,14
2022-09-07T09:11:36.718Z,14.2
2022-09-07T09:14:36.724Z,13.3
2022-09-07T09:17:36.725Z,12.8
2022-09-07T09:20:36.739Z,13.3
2022-09-07T09:23:36.759Z,13.5
2022-09-07T09:26:36.740Z,14.7
2022-09-07T09:29:36.747Z,14.4
2022-09-07T09:32:36.743Z,13.9
2022-09-07T09:35:36.770Z,12.5
2022-09-07T09:38:36.759Z,12.2
2022-09-07T09:41:36.774Z,12.2
2022-09-07T09:44:36.751Z,12
2022-09-07T09:47:36.780Z,11.7
2022-09-07T09:53:36.757Z,10.7
2022-09-07T09:56:36.759Z,10.6
2022-09-07T10:05:36.786Z,10.1
2022-09-07T10:08:36.770Z,10
2022-09-07T10:12:05.657Z,9.7
2022-09-07T10:14:36.785Z,9.5
2022-09-07T10:17:36.825Z,9.7
2022-09-07T10:20:36.819Z,9.6
2022-09-07T10:23:36.818Z,10.3
2022-09-07T10:26:36.819Z,10.1
2022-09-07T10:29:36.830Z,9.9
2022-09-07T10:32:36.839Z,9.8
2022-09-07T10:35:36.890Z,9.4
2022-09-07T10:38:36.848Z,9
2022-09-07T10:41:36.861Z,9.1
2022-09-07T10:44:36.881Z,9.2
2022-09-07T10:47:36.925Z,9.5
2022-09-07T10:50:36.908Z,9.6
2022-09-07T10:53:41.124Z,9.1
2022-09-07T10:56:36.926Z,9
2022-09-07T11:02:36.977Z,8.3
2022-09-07T11:05:38.347Z,8.8
2022-09-07T11:09:15.616Z,8.4
2022-09-07T11:14:36.999Z,8.4
2022-09-07T11:17:37.019Z,8.5
2022-09-07T11:20:37.046Z,8.2
2022-09-07T11:23:40.828Z,8.7
2022-09-07T11:26:37.062Z,8.4
2022-09-07T11:29:37.104Z,8
2022-09-07T11:32:37.105Z,8.1
2022-09-07T11:35:37.135Z,7.7
2022-09-07T11:38:37.145Z,7.6
2022-09-07T11:41:37.163Z,7.6
2022-09-07T11:44:37.182Z,7.9
2022-09-07T11:47:37.227Z,8.1
2022-09-07T11:50:37.241Z,7.7
2022-09-07T11:53:37.238Z,7.8
2022-09-07T11:56:37.262Z,7.6
2022-09-07T11:59:37.281Z,7.6
2022-09-07T12:02:58.019Z,7.4
2022-09-07T12:05:37.364Z,7.9
2022-09-07T12:08:37.334Z,7.3
2022-09-07T12:11:37.347Z,7.7
2022-09-07T12:14:37.364Z,7.8
2022-09-07T12:17:37.383Z,7.9
2022-09-07T12:20:37.407Z,8.5
2022-09-07T12:23:37.434Z,8.8
2022-09-07T12:26:37.434Z,9.3
2022-09-07T12:29:37.462Z,9
2022-09-07T12:32:54.145Z,8.6
2022-09-07T12:35:37.521Z,7.7
2022-09-07T12:38:37.514Z,7.7
2022-09-07T12:41:37.565Z,7.2
2022-09-07T12:44:37.560Z,7.6
2022-09-07T12:47:37.580Z,7.4
2022-09-07T12:50:40.097Z,7.9
2022-09-07T12:53:37.608Z,7.6
2022-09-07T12:56:37.628Z,8.1
2022-09-07T12:59:37.673Z,7
2022-09-07T13:02:37.800Z,7.2
2022-09-07T13:05:37.708Z,7.2
2022-09-07T13:08:37.707Z,7
2022-09-07T13:11:37.873Z,6.9
2022-09-07T13:14:37.748Z,7
2022-09-07T13:17:37.790Z,6.6
2022-09-07T13:20:40.710Z,6.8
2022-09-07T13:23:38.116Z,7.5
2022-09-07T13:26:37.838Z,7.2
2022-09-07T13:29:37.850Z,7.5
2022-09-07T13:35:37.920Z,7.1
2022-09-07T13:38:37.909Z,6.7
2022-09-07T13:41:37.945Z,7.4
2022-09-07T13:44:37.948Z,8.1
2022-09-07T13:47:37.966Z,7.5
2022-09-07T13:50:37.992Z,7.4
2022-09-07T13:53:38.033Z,7.6
2022-09-07T13:56:38.030Z,7.3
2022-09-07T13:59:38.050Z,7.6
2022-09-07T14:02:38.114Z,8.1
2022-09-07T14:05:38.091Z,7.9
2022-09-07T14:08:39.860Z,8
2022-09-07T14:11:38.158Z,7.8
2022-09-07T14:14:38.157Z,7.7
2022-09-07T14:17:38.184Z,7.2
2022-09-07T14:20:38.218Z,8.1
2022-09-07T14:23:38.219Z,8.9
2022-09-07T14:26:38.227Z,8.2
2022-09-07T14:29:38.292Z,8.5
2022-09-07T14:32:38.258Z,7.4
2022-09-07T14:35:38.285Z,7.5
2022-09-07T14:41:38.291Z,7.4
2022-09-07T14:44:38.979Z,7.5
2022-09-07T14:47:38.343Z,7.1
2022-09-07T14:50:38.993Z,7
2022-09-07T14:53:38.356Z,6.8
2022-09-07T14:56:38.378Z,6.8
2022-09-07T14:59:38.401Z,6.9
2022-09-07T15:02:38.444Z,6.5
2022-09-07T15:05:38.474Z,6.2
2022-09-07T15:08:38.667Z,6.3
2022-09-07T15:11:38.481Z,6.6
2022-09-07T15:14:38.471Z,6.1
2022-09-07T15:17:45.704Z,6
2022-09-07T15:20:38.513Z,6
2022-09-07T15:23:38.552Z,6
2022-09-07T15:27:06.153Z,6.2
2022-09-07T15:29:38.548Z,5.9
2022-09-07T15:32:38.618Z,5.8
2022-09-07T15:35:38.587Z,6.1
2022-09-07T15:39:05.338Z,6.2
2022-09-07T15:41:38.639Z,6
2022-09-07T15:44:38.643Z,6.2
2022-09-07T15:47:53.870Z,5.9
2022-09-07T15:50:38.758Z,6.4
2022-09-07T15:54:11.339Z,5.9
2022-09-07T15:56:38.864Z,6.1
2022-09-07T15:59:38.758Z,6.5
2022-09-07T16:03:05.351Z,6.1
2022-09-07T16:05:39.872Z,5.7
2022-09-07T16:08:38.872Z,5.4
2022-09-07T16:11:38.809Z,5.3
2022-09-07T16:14:38.826Z,5.1
2022-09-07T16:17:47.074Z,5.1
2022-09-07T16:20:38.868Z,5.4
2022-09-07T16:23:38.864Z,5.2
2022-09-07T16:26:38.879Z,5.2
2022-09-07T16:29:38.956Z,5.3
2022-09-07T16:32:46.167Z,5.3
2022-09-07T16:35:38.994Z,5.2
2022-09-07T16:38:46.265Z,5.4
2022-09-07T16:41:38.986Z,5.2
2022-09-07T16:44:39.023Z,5.2
2022-09-07T16:47:39.180Z,5.6
2022-09-07T16:50:39.077Z,5.5
2022-09-07T16:53:39.703Z,5.4
2022-09-07T16:56:39.421Z,6.1
2022-09-07T16:59:39.112Z,7
2022-09-07T17:02:39.135Z,7.4
2022-09-07T17:05:39.177Z,8.1
2022-09-07T17:08:39.158Z,8.4
2022-09-07T17:11:39.195Z,9
2022-09-07T17:14:39.214Z,9.8
2022-09-07T17:17:39.204Z,10.1
2022-09-07T17:20:39.235Z,10.3
2022-09-07T17:23:46.389Z,11.3
2022-09-07T17:26:39.499Z,11.7
2022-09-07T17:29:39.254Z,12.3
2022-09-07T17:32:39.260Z,12.7
2022-09-07T17:35:39.309Z,12.6
2022-09-07T17:41:39.243Z,13.2
2022-09-07T17:44:39.249Z,12.8
2022-09-07T17:47:39.274Z,12.9
2022-09-07T17:50:39.274Z,12.6
2022-09-07T17:53:39.250Z,14.1
2022-09-07T17:56:39.261Z,14
2022-09-07T18:02:39.265Z,14.6
2022-09-07T18:05:39.307Z,14.4
2022-09-07T18:08:39.274Z,15.4
2022-09-07T18:11:47.899Z,15.6
2022-09-07T18:14:39.337Z,16.2
2022-09-07T18:17:39.286Z,16.7
2022-09-07T18:20:39.300Z,16.4
2022-09-07T18:23:39.304Z,16.4
2022-09-07T18:26:39.285Z,16.2
2022-09-07T18:29:39.282Z,15.7
2022-09-07T18:32:39.296Z,15.5
2022-09-07T18:35:39.299Z,15.9
2022-09-07T18:38:39.298Z,16.3
2022-09-07T18:41:40.792Z,17.5
2022-09-07T18:47:39.758Z,18.9
2022-09-07T18:50:39.311Z,19.9
2022-09-07T18:53:39.312Z,20
2022-09-07T18:56:39.317Z,20.4
2022-09-07T18:59:39.426Z,21
2022-09-07T19:02:39.380Z,20
2022-09-07T19:05:54.643Z,19.7
2022-09-07T19:08:39.331Z,18.9
2022-09-07T19:11:39.336Z,19.5
2022-09-07T19:14:39.332Z,17.6
2022-09-07T19:17:39.371Z,18.1
2022-09-07T19:20:39.377Z,19.5
2022-09-07T19:23:39.358Z,19.1
2022-09-07T19:26:39.362Z,17.1
2022-09-07T19:29:39.358Z,18.6
2022-09-07T19:32:39.366Z,18
2022-09-07T19:35:39.404Z,17.4
2022-09-07T19:38:39.376Z,16.9
2022-09-07T19:41:39.388Z,18.3
2022-09-07T19:44:39.443Z,18.2
2022-09-07T19:47:39.388Z,19.4
2022-09-07T19:50:39.401Z,18.9
2022-09-07T19:53:39.422Z,19.6
2022-09-07T19:56:39.399Z,19.9
2022-09-07T19:59:39.404Z,20.4
2022-09-07T20:02:39.409Z,21.9
2022-09-07T20:05:39.419Z,22.3
2022-09-07T20:08:39.417Z,22.9
2022-09-07T20:11:41.796Z,22.1
2022-09-07T20:14:39.426Z,22.4
2022-09-07T20:17:39.432Z,23.3
2022-09-07T20:20:39.450Z,23.7
2022-09-07T20:23:39.444Z,22.9
2022-09-07T20:26:39.441Z,22.6
2022-09-07T20:29:39.483Z,22.5
2022-09-07T20:32:39.460Z,23.9
2022-09-07T20:35:39.483Z,23.3
2022-09-07T20:38:39.474Z,23.8
2022-09-07T20:41:39.482Z,23.6
2022-09-07T20:44:39.491Z,23.9
2022-09-07T20:47:39.517Z,23.6
2022-09-07T20:50:39.500Z,25.3
2022-09-07T20:53:39.505Z,25.1
2022-09-07T20:56:39.509Z,25.3
2022-09-07T20:59:39.511Z,25.6
2022-09-07T21:02:39.531Z,26.3
2022-09-07T21:05:39.573Z,27.5
2022-09-07T21:08:39.529Z,27.3
2022-09-07T21:11:39.535Z,27.7
2022-09-07T21:14:39.541Z,27.8
2022-09-07T21:17:39.545Z,27.8
2022-09-07T21:20:39.566Z,28.4
2022-09-07T21:23:39.587Z,29.1
2022-09-07T21:26:39.569Z,29.3
2022-09-07T21:29:39.576Z,29.7
2022-09-07T21:32:39.583Z,29.3
2022-09-07T21:35:39.604Z,29.1
2022-09-07T21:38:39.602Z,28.9
2022-09-07T21:41:39.622Z,29.5
2022-09-07T21:44:39.609Z,29.1
2022-09-07T21:47:39.626Z,29.1
2022-09-07T21:50:39.639Z,29.5
2022-09-07T21:53:39.637Z,30.7
2022-09-07T21:56:43.231Z,30.3
2022-09-07T21:59:39.683Z,30.5
2022-09-07T22:02:39.660Z,31.2
2022-09-07T22:05:39.679Z,31.8
2022-09-07T22:08:39.679Z,32.6
2022-09-07T22:11:41.992Z,33
2022-09-07T22:14:39.694Z,33.9
2022-09-07T22:17:42.273Z,34.3
2022-09-07T22:20:39.747Z,35.5
2022-09-07T22:23:39.715Z,35.2
2022-09-07T22:26:39.728Z,36.4
2022-09-07T22:29:39.740Z,36.6
2022-09-07T22:32:39.738Z,37.2
2022-09-07T22:35:39.788Z,36.4
2022-09-07T22:38:39.761Z,35.9
2022-09-07T22:41:39.904Z,35.7
2022-09-07T22:44:39.785Z,35.7
2022-09-07T22:47:39.791Z,35
2022-09-07T22:50:39.816Z,35
2022-09-07T22:53:39.837Z,36.2
2022-09-07T22:56:39.833Z,35.3
2022-09-07T22:59:39.829Z,35.7
2022-09-07T23:02:39.841Z,36.9
2022-09-07T23:05:39.861Z,36.7
2022-09-07T23:08:39.858Z,36.6
2022-09-07T23:11:39.900Z,37.4
2022-09-07T23:14:39.887Z,37.4
2022-09-07T23:17:39.898Z,37.3
2022-09-07T23:20:39.918Z,35.8
2022-09-07T23:23:39.916Z,36.1
2022-09-07T23:26:39.932Z,37.6
2022-09-07T23:29:39.973Z,37.9
2022-09-07T23:32:39.962Z,36.4
2022-09-07T23:35:40.016Z,36.9
2022-09-07T23:38:39.979Z,37.1
2022-09-07T23:41:39.992Z,37
2022-09-07T23:44:40.006Z,36.9
2022-09-07T23:47:40.039Z,36.7
2022-09-07T23:50:40.058Z,36.5
2022-09-07T23:53:40.052Z,35.9
2022-09-07T23:56:40.057Z,36.8
2022-09-07T23:59:40.065Z,37.5
